Hamburg Express — DFKM2 — position and weather

sailwx.info

Track history (hours):
 
Tides and Currents Weather Stations Pressure Air Temp Water Temp Dewpoint Dewpoint Depression Visibility Wind Speed Wind Dir Waves Ship Positions

Hamburg Express

Last reported at 2015-May-30 22:33 UTC. Time now 2015-May-30 22:43 UTC.
Position N 50°20' W 000°52'.

Length 366 m; draft 14.2 m.

Type: Cargo ship. MMSI: 218774000.

Date/timePositionNaut miles runAvg speedWind from/ knotsBaromVisibWave heightAir tempDewpointWater temp
2015-May-30 22:33N 50°20' W 000°52'2019.7
2015-May-30 21:32N 50°25' W 000°22'2218.4
2015-May-30 20:20N 50°31' E 000°12'1317.5
2015-May-30 19:33N 50°35' E 000°32'1817.7
2015-May-30 18:33N 50°45' E 000°54'1919.0
2015-May-30 17:33N 50°56' E 001°19'2020.4
2015-May-30 16:34N 51°10' E 001°42'2019.7
2015-May-30 15:34N 51°26' E 002°00'1818.5
2015-May-30 14:34N 51°40' E 002°20'5116.8
2015-May-30 11:33N 52°04' E 003°32'1413.7
2015-May-30 10:33N 52°02' E 003°54'9 8.6
2015-May-30 09:33N 51°57' E 004°05'1 0.5
2015-May-30 08:31N 51°57' E 004°04'0 0.0
2015-May-30 07:31N 51°57' E 004°04'0 0.0
2015-May-30 06:31N 51°57' E 004°04'0 0.0
2015-May-30 05:31N 51°57' E 004°04'0 0.0
2015-May-30 04:31N 51°57' E 004°04'0 0.0
2015-May-30 03:31N 51°57' E 004°04'0 0.0
2015-May-30 02:31N 51°57' E 004°04'0 0.0
2015-May-30 01:31N 51°57' E 004°04'0 0.0
2015-May-30 00:31N 51°57' E 004°04'0 0.0
2015-May-29 23:31N 51°57' E 004°04'0 0.0
2015-May-29 22:31N 51°57' E 004°04'0 0.0
2015-May-29 21:31N 51°57' E 004°04'0 0.0
2015-May-29 20:31N 51°57' E 004°04'0 0.0
2015-May-29 19:31N 51°57' E 004°04'0 0.0
2015-May-29 18:31N 51°57' E 004°04'0 0.0
2015-May-29 17:31N 51°57' E 004°04'0 0.0
2015-May-29 16:31N 51°57' E 004°04'0 0.0
2015-May-29 15:31N 51°57' E 004°04'0 0.0
2015-May-29 14:31N 51°57' E 004°04'0 0.0
2015-May-29 13:31N 51°57' E 004°04'0 0.0
2015-May-29 12:31N 51°57' E 004°04'0 0.0
2015-May-29 11:31N 51°57' E 004°04'0 0.0
2015-May-29 10:31N 51°57' E 004°04'0 0.0
2015-May-29 09:31N 51°57' E 004°04'0 0.0
2015-May-29 08:31N 51°57' E 004°04'0 0.0
2015-May-29 07:31N 51°57' E 004°04'0 0.0
2015-May-29 06:31N 51°57' E 004°04'0 0.0
2015-May-29 05:31N 51°57' E 004°04'0 0.0
2015-May-29 04:31N 51°57' E 004°04'0 0.0
2015-May-29 03:31N 51°57' E 004°04'0 0.0
2015-May-29 02:31N 51°57' E 004°04'0 0.3
2015-May-29 01:33N 51°57' E 004°04'6 6.1
2015-May-29 00:33N 52°00' E 003°56'9 8.7
2015-May-28 23:33N 52°07' E 003°46'5 4.7
2015-May-28 22:32N 52°11' E 003°42'0 0.0
2015-May-28 21:32N 52°11' E 003°42'0 0.0
2015-May-28 20:32N 52°11' E 003°42'0 0.1
2015-May-28 19:32N 52°11' E 003°42'0 0.1
2015-May-28 18:32N 52°11' E 003°42'0 0.0
2015-May-28 17:32N 52°11' E 003°42'0 0.1
2015-May-28 16:23N 52°11' E 003°42'0 0.1
2015-May-28 15:32N 52°11' E 003°42'0 0.0
2015-May-28 14:26N 52°11' E 003°42'0 0.0
2015-May-28 13:32N 52°11' E 003°42'0 0.0
2015-May-28 12:32N 52°11' E 003°42'0 0.0
2015-May-28 11:32N 52°11' E 003°42'0 0.0
2015-May-28 10:32N 52°11' E 003°42'0 0.0
2015-May-28 09:32N 52°11' E 003°42'0 0.0
2015-May-28 08:32N 52°11' E 003°42'0 0.0
2015-May-28 07:32N 52°11' E 003°42'0 0.0
2015-May-28 06:32N 52°11' E 003°42'0 0.1
2015-May-28 05:29N 52°11' E 003°42'2 2.3
2015-May-28 04:33N 52°12' E 003°45'1211.6
2015-May-28 03:33N 52°23' E 003°49'1313.5
2015-May-28 02:33N 52°37' E 003°52'31 9.7
2015-May-27 23:22N 53°05' E 004°14'8 9.5
2015-May-27 22:33N 53°10' E 004°23'1010.3
2015-May-27 21:33N 53°19' E 004°31'1111.2
2015-May-27 20:33N 53°29' E 004°40'1211.9
2015-May-27 19:33N 53°34' E 004°58'1211.7
2015-May-27 18:33N 53°38' E 005°16'1111.4
2015-May-27 17:33N 53°41' E 005°35'1110.8
2015-May-27 16:33N 53°44' E 005°52'10 9.8
2015-May-27 15:33N 53°47' E 006°08'10 9.6
2015-May-27 14:33N 53°50' E 006°23'2210.3
2015-May-27 12:27N 53°55' E 006°59'1011.2
2015-May-27 11:33N 53°58' E 007°16'1211.7
2015-May-27 10:33N 54°00' E 007°35'1111.5
2015-May-27 09:33N 54°02' E 007°54'1211.7
2015-May-27 08:33N 54°00' E 008°14'1616.2
2015-May-27 07:33N 53°55' E 008°40'1111.0
2015-May-27 06:34N 53°51' E 008°57'10 9.7
2015-May-27 05:33N 53°53' E 009°13'1211.8
2015-May-27 04:33N 53°44' E 009°27'1111.2
2015-May-27 03:33N 53°35' E 009°38'9 9.4
2015-May-27 02:33N 53°33' E 009°53'1 1.5
2015-May-27 01:33N 53°32' E 009°55'0 0.0
2015-May-27 00:33N 53°32' E 009°55'0 0.0
2015-May-26 23:33N 53°32' E 009°55'0 0.0
2015-May-26 22:33N 53°32' E 009°55'0 0.0
2015-May-26 21:33N 53°32' E 009°55'0 0.0
2015-May-26 20:33N 53°32' E 009°55'0 0.0
2015-May-26 19:33N 53°32' E 009°55'0 0.0
2015-May-26 18:33N 53°32' E 009°55'0 0.0
2015-May-26 17:33N 53°32' E 009°55'0 0.0
2015-May-26 16:33N 53°32' E 009°55'0 0.0
2015-May-26 15:33N 53°32' E 009°55'0 0.0
2015-May-26 14:33N 53°32' E 009°55'0 0.0
2015-May-26 13:33N 53°32' E 009°55'0 0.0
2015-May-26 12:33N 53°32' E 009°55'0 0.0
2015-May-26 11:24N 53°32' E 009°55'0 0.0
2015-May-26 10:33N 53°32' E 009°55'0 0.0
2015-May-26 09:33N 53°32' E 009°55'0 0.0
2015-May-26 08:27N 53°32' E 009°55'0 0.0
2015-May-26 07:33N 53°32' E 009°55'0 0.0
2015-May-26 06:21N 53°32' E 009°55'0 0.0
2015-May-26 05:29N 53°32' E 009°55'0 0.0
2015-May-26 04:33N 53°32' E 009°55'0 0.0
2015-May-26 03:33N 53°32' E 009°55'0 0.0
2015-May-26 02:28N 53°32' E 009°55'0 0.0
2015-May-26 01:33N 53°32' E 009°55'0 0.0
2015-May-26 00:33N 53°32' E 009°55'0 0.0
2015-May-25 23:33N 53°32' E 009°55'0 0.0
2015-May-25 22:33N 53°32' E 009°55'0 0.0
2015-May-25 21:30N 53°32' E 009°55'0 0.0
2015-May-25 20:30N 53°32' E 009°55'0 0.0
2015-May-25 19:33N 53°32' E 009°55'0 0.0
2015-May-25 18:30N 53°32' E 009°55'0 0.0
2015-May-25 17:24N 53°32' E 009°55'0 0.0
2015-May-25 16:33N 53°32' E 009°55'0 0.0
2015-May-25 15:30N 53°32' E 009°55'0 0.0
2015-May-25 14:33N 53°32' E 009°55'0 0.0
2015-May-25 13:30N 53°32' E 009°55'0 0.0
2015-May-25 12:30N 53°32' E 009°55'0 0.0
2015-May-25 11:30N 53°32' E 009°55'0 0.0
2015-May-25 10:33N 53°32' E 009°55'0 0.0
2015-May-25 09:30N 53°32' E 009°55'0 0.0
2015-May-25 08:20N 53°32' E 009°55'0 0.0
2015-May-25 07:29N 53°32' E 009°55'0 0.0
2015-May-25 06:27N 53°32' E 009°55'0 0.0
2015-May-25 05:21N 53°32' E 009°55'0 0.0
2015-May-25 04:32N 53°32' E 009°55'0 0.0
2015-May-25 03:33N 53°32' E 009°55'0 0.0
2015-May-25 02:22N 53°32' E 009°55'0 0.0
2015-May-25 01:33N 53°32' E 009°55'0 0.0
2015-May-25 00:33N 53°32' E 009°55'0 0.0
2015-May-24 23:33N 53°32' E 009°55'0 0.0
2015-May-24 22:33N 53°32' E 009°55'0 0.0
2015-May-24 21:33N 53°32' E 009°55'0 0.0
2015-May-24 20:30N 53°32' E 009°55'0 0.0
2015-May-24 19:33N 53°32' E 009°55'0 0.0
2015-May-24 18:30N 53°32' E 009°55'0 0.0
2015-May-24 17:30N 53°32' E 009°55'0 0.0
2015-May-24 16:33N 53°32' E 009°55'0 0.0
2015-May-24 15:33N 53°32' E 009°55'0 0.0
2015-May-24 14:33N 53°32' E 009°55'0 0.0
2015-May-24 13:33N 53°32' E 009°55'0 0.0
2015-May-24 12:33N 53°32' E 009°55'0 0.0
2015-May-24 11:33N 53°32' E 009°55'0 0.0
2015-May-24 10:27N 53°32' E 009°55'0 0.0
2015-May-24 09:31N 53°32' E 009°55'0 0.0
2015-May-24 08:33N 53°32' E 009°55'0 0.0
2015-May-24 07:33N 53°32' E 009°55'0 0.0
2015-May-24 06:27N 53°32' E 009°55'0 0.0
2015-May-24 05:33N 53°32' E 009°55'0 0.0
2015-May-24 04:33N 53°32' E 009°55'0 0.0
2015-May-24 03:33N 53°32' E 009°55'0 0.0
2015-May-24 02:22N 53°32' E 009°55'0 0.0
2015-May-24 01:30N 53°32' E 009°55'0 0.0
2015-May-24 00:33N 53°32' E 009°55'0 0.0
2015-May-23 23:33N 53°32' E 009°55'0 0.0
2015-May-23 22:33N 53°32' E 009°55'0 0.0
2015-May-23 21:33N 53°32' E 009°55'0 0.0
2015-May-23 20:27N 53°32' E 009°55'0 0.0
2015-May-23 19:33N 53°32' E 009°55'1 0.9
2015-May-23 18:33N 53°32' E 009°54'8 7.5
2015-May-23 17:34N 53°34' E 009°42'9 9.2
2015-May-23 16:33N 53°40' E 009°30'1313.5
2015-May-23 15:33N 53°52' E 009°18'1211.7
2015-May-23 14:33N 53°51' E 008°58'1010.3
2015-May-23 13:33N 53°54' E 008°42'1514.5
2015-May-23 12:33N 53°60' E 008°19'9 9.4
2015-May-23 11:33N 53°58' E 008°03'6 5.6
2015-May-23 10:33N 53°57' E 007°54'8 7.7
2015-May-23 09:33N 53°56' E 007°41'1312.7
2015-May-23 08:33N 53°53' E 007°20'1312.9
2015-May-23 07:33N 53°50' E 006°59'1412.0
2015-May-23 06:22N 53°47' E 006°35'8 9.7
2015-May-23 05:33N 53°46' E 006°22'9 9.5
2015-May-23 04:33N 53°43' E 006°07'9 9.5
2015-May-23 03:34N 53°39' E 005°52'10 9.8
2015-May-23 02:34N 53°36' E 005°36'1010.5
2015-May-23 01:34N 53°33' E 005°19'1111.0
2015-May-23 00:33N 53°29' E 005°02'1211.6
2015-May-22 23:34N 53°24' E 004°44'1211.7
2015-May-22 22:34N 53°14' E 004°35'1212.1
2015-May-22 21:34N 53°04' E 004°23'1312.8
2015-May-22 20:34N 52°52' E 004°15'1312.7
2015-May-22 19:33N 52°42' E 004°02'1312.7
2015-May-22 18:34N 52°33' E 003°47'1514.7
2015-May-22 17:33N 52°23' E 003°30'1716.8
2015-May-22 16:33N 52°11' E 003°11'1716.7
2015-May-22 15:33N 51°58' E 002°53'1616.2
2015-May-22 14:33N 51°46' E 002°35'1615.6
2015-May-22 13:34N 51°34' E 002°19'1414.4
2015-May-22 12:33N 51°23' E 002°04'1313.4
2015-May-22 11:33N 51°13' E 001°50'1211.6
2015-May-22 10:34N 51°04' E 001°38'1111.2
2015-May-22 09:33N 50°55' E 001°27'1211.1
2015-May-22 08:30N 50°44' E 001°22'9 9.7
2015-May-22 07:33N 50°37' E 001°13'1110.5
2015-May-22 06:32N 50°30' E 001°00'1010.6
2015-May-22 05:33N 50°27' E 000°44'1110.4
2015-May-22 04:31N 50°24' E 000°28'23 9.8
2015-May-22 02:12N 50°21' W 000°07'710.6
2015-May-22 01:31N 50°24' W 000°18'1111.4
2015-May-22 00:33N 50°28' W 000°34'1211.8
2015-May-21 23:33N 50°31' W 000°51'8 8.4
2015-May-21 22:33N 50°39' W 000°57'10 9.8
2015-May-21 21:34N 50°46' W 001°09'1010.4
2015-May-21 20:33N 50°52' W 001°22'4 4.3
2015-May-21 19:32N 50°54' W 001°27'0 0.0
2015-May-21 18:32N 50°54' W 001°27'0 0.0
2015-May-21 17:32N 50°54' W 001°27'0 0.0
2015-May-21 16:32N 50°54' W 001°27'0 0.0
2015-May-21 15:32N 50°54' W 001°27'0 0.0
2015-May-21 14:32N 50°54' W 001°27'0 0.0
2015-May-21 13:32N 50°54' W 001°27'0 0.0
2015-May-21 12:32N 50°54' W 001°27'0 0.0
2015-May-21 11:32N 50°54' W 001°27'0 0.0
2015-May-21 10:32N 50°54' W 001°27'0 0.0
2015-May-21 09:32N 50°54' W 001°27'0 0.0
2015-May-21 08:32N 50°54' W 001°27'0 0.0
2015-May-21 07:32N 50°54' W 001°27'0 0.0
2015-May-21 06:32N 50°54' W 001°27'0 0.0
2015-May-21 05:32N 50°54' W 001°27'0 0.0
2015-May-21 04:32N 50°54' W 001°27'0 0.0
2015-May-21 03:32N 50°54' W 001°27'0 0.0
2015-May-21 02:32N 50°54' W 001°27'0 0.0
2015-May-21 01:32N 50°54' W 001°27'0 0.0
2015-May-21 00:32N 50°54' W 001°27'0 0.0
2015-May-20 23:32N 50°54' W 001°27'  
Track history (hours):
 
Tides and Currents Weather Stations Pressure Air Temp Water Temp Dewpoint Dewpoint Depression Visibility Wind Speed Wind Dir Waves Ship Positions

Hamburg Express

Last reported at 2015-May-30 22:33 UTC. Time now 2015-May-30 22:43 UTC.
Position N 50°20' W 000°52'.

Length 366 m; draft 14.2 m.

Type: Cargo ship. MMSI: 218774000.

Date/timePositionNaut miles runAvg speedWind from/ knotsBaromVisibWave heightAir tempDewpointWater temp
2015-May-30 22:33N 50°20' W 000°52'2019.7
2015-May-30 21:32N 50°25' W 000°22'2218.4
2015-May-30 20:20N 50°31' E 000°12'1317.5
2015-May-30 19:33N 50°35' E 000°32'1817.7
2015-May-30 18:33N 50°45' E 000°54'1919.0
2015-May-30 17:33N 50°56' E 001°19'2020.4
2015-May-30 16:34N 51°10' E 001°42'2019.7
2015-May-30 15:34N 51°26' E 002°00'1818.5
2015-May-30 14:34N 51°40' E 002°20'5116.8
2015-May-30 11:33N 52°04' E 003°32'1413.7
2015-May-30 10:33N 52°02' E 003°54'9 8.6
2015-May-30 09:33N 51°57' E 004°05'1 0.5
2015-May-30 08:31N 51°57' E 004°04'0 0.0
2015-May-30 07:31N 51°57' E 004°04'0 0.0
2015-May-30 06:31N 51°57' E 004°04'0 0.0
2015-May-30 05:31N 51°57' E 004°04'0 0.0
2015-May-30 04:31N 51°57' E 004°04'0 0.0
2015-May-30 03:31N 51°57' E 004°04'0 0.0
2015-May-30 02:31N 51°57' E 004°04'0 0.0
2015-May-30 01:31N 51°57' E 004°04'0 0.0
2015-May-30 00:31N 51°57' E 004°04'0 0.0
2015-May-29 23:31N 51°57' E 004°04'0 0.0
2015-May-29 22:31N 51°57' E 004°04'0 0.0
2015-May-29 21:31N 51°57' E 004°04'0 0.0
2015-May-29 20:31N 51°57' E 004°04'0 0.0
2015-May-29 19:31N 51°57' E 004°04'0 0.0
2015-May-29 18:31N 51°57' E 004°04'0 0.0
2015-May-29 17:31N 51°57' E 004°04'0 0.0
2015-May-29 16:31N 51°57' E 004°04'0 0.0
2015-May-29 15:31N 51°57' E 004°04'0 0.0
2015-May-29 14:31N 51°57' E 004°04'0 0.0
2015-May-29 13:31N 51°57' E 004°04'0 0.0
2015-May-29 12:31N 51°57' E 004°04'0 0.0
2015-May-29 11:31N 51°57' E 004°04'0 0.0
2015-May-29 10:31N 51°57' E 004°04'0 0.0
2015-May-29 09:31N 51°57' E 004°04'0 0.0
2015-May-29 08:31N 51°57' E 004°04'0 0.0
2015-May-29 07:31N 51°57' E 004°04'0 0.0
2015-May-29 06:31N 51°57' E 004°04'0 0.0
2015-May-29 05:31N 51°57' E 004°04'0 0.0
2015-May-29 04:31N 51°57' E 004°04'0 0.0
2015-May-29 03:31N 51°57' E 004°04'0 0.0
2015-May-29 02:31N 51°57' E 004°04'0 0.3
2015-May-29 01:33N 51°57' E 004°04'6 6.1
2015-May-29 00:33N 52°00' E 003°56'9 8.7
2015-May-28 23:33N 52°07' E 003°46'5 4.7
2015-May-28 22:32N 52°11' E 003°42'0 0.0
2015-May-28 21:32N 52°11' E 003°42'0 0.0
2015-May-28 20:32N 52°11' E 003°42'0 0.1
2015-May-28 19:32N 52°11' E 003°42'0 0.1
2015-May-28 18:32N 52°11' E 003°42'0 0.0
2015-May-28 17:32N 52°11' E 003°42'0 0.1
2015-May-28 16:23N 52°11' E 003°42'0 0.1
2015-May-28 15:32N 52°11' E 003°42'0 0.0
2015-May-28 14:26N 52°11' E 003°42'0 0.0
2015-May-28 13:32N 52°11' E 003°42'0 0.0
2015-May-28 12:32N 52°11' E 003°42'0 0.0
2015-May-28 11:32N 52°11' E 003°42'0 0.0
2015-May-28 10:32N 52°11' E 003°42'0 0.0
2015-May-28 09:32N 52°11' E 003°42'0 0.0
2015-May-28 08:32N 52°11' E 003°42'0 0.0
2015-May-28 07:32N 52°11' E 003°42'0 0.0
2015-May-28 06:32N 52°11' E 003°42'0 0.1
2015-May-28 05:29N 52°11' E 003°42'2 2.3
2015-May-28 04:33N 52°12' E 003°45'1211.6
2015-May-28 03:33N 52°23' E 003°49'1313.5
2015-May-28 02:33N 52°37' E 003°52'31 9.7
2015-May-27 23:22N 53°05' E 004°14'8 9.5
2015-May-27 22:33N 53°10' E 004°23'1010.3
2015-May-27 21:33N 53°19' E 004°31'1111.2
2015-May-27 20:33N 53°29' E 004°40'1211.9
2015-May-27 19:33N 53°34' E 004°58'1211.7
2015-May-27 18:33N 53°38' E 005°16'1111.4
2015-May-27 17:33N 53°41' E 005°35'1110.8
2015-May-27 16:33N 53°44' E 005°52'10 9.8
2015-May-27 15:33N 53°47' E 006°08'10 9.6
2015-May-27 14:33N 53°50' E 006°23'2210.3
2015-May-27 12:27N 53°55' E 006°59'1011.2
2015-May-27 11:33N 53°58' E 007°16'1211.7
2015-May-27 10:33N 54°00' E 007°35'1111.5
2015-May-27 09:33N 54°02' E 007°54'1211.7
2015-May-27 08:33N 54°00' E 008°14'1616.2
2015-May-27 07:33N 53°55' E 008°40'1111.0
2015-May-27 06:34N 53°51' E 008°57'10 9.7
2015-May-27 05:33N 53°53' E 009°13'1211.8
2015-May-27 04:33N 53°44' E 009°27'1111.2
2015-May-27 03:33N 53°35' E 009°38'9 9.4
2015-May-27 02:33N 53°33' E 009°53'1 1.5
2015-May-27 01:33N 53°32' E 009°55'0 0.0
2015-May-27 00:33N 53°32' E 009°55'0 0.0
2015-May-26 23:33N 53°32' E 009°55'0 0.0
2015-May-26 22:33N 53°32' E 009°55'0 0.0
2015-May-26 21:33N 53°32' E 009°55'0 0.0
2015-May-26 20:33N 53°32' E 009°55'0 0.0
2015-May-26 19:33N 53°32' E 009°55'0 0.0
2015-May-26 18:33N 53°32' E 009°55'0 0.0
2015-May-26 17:33N 53°32' E 009°55'0 0.0
2015-May-26 16:33N 53°32' E 009°55'0 0.0
2015-May-26 15:33N 53°32' E 009°55'0 0.0
2015-May-26 14:33N 53°32' E 009°55'0 0.0
2015-May-26 13:33N 53°32' E 009°55'0 0.0
2015-May-26 12:33N 53°32' E 009°55'0 0.0
2015-May-26 11:24N 53°32' E 009°55'0 0.0
2015-May-26 10:33N 53°32' E 009°55'0 0.0
2015-May-26 09:33N 53°32' E 009°55'0 0.0
2015-May-26 08:27N 53°32' E 009°55'0 0.0
2015-May-26 07:33N 53°32' E 009°55'0 0.0
2015-May-26 06:21N 53°32' E 009°55'0 0.0
2015-May-26 05:29N 53°32' E 009°55'0 0.0
2015-May-26 04:33N 53°32' E 009°55'0 0.0
2015-May-26 03:33N 53°32' E 009°55'0 0.0
2015-May-26 02:28N 53°32' E 009°55'0 0.0
2015-May-26 01:33N 53°32' E 009°55'0 0.0
2015-May-26 00:33N 53°32' E 009°55'0 0.0
2015-May-25 23:33N 53°32' E 009°55'0 0.0
2015-May-25 22:33N 53°32' E 009°55'0 0.0
2015-May-25 21:30N 53°32' E 009°55'0 0.0
2015-May-25 20:30N 53°32' E 009°55'0 0.0
2015-May-25 19:33N 53°32' E 009°55'0 0.0
2015-May-25 18:30N 53°32' E 009°55'0 0.0
2015-May-25 17:24N 53°32' E 009°55'0 0.0
2015-May-25 16:33N 53°32' E 009°55'0 0.0
2015-May-25 15:30N 53°32' E 009°55'0 0.0
2015-May-25 14:33N 53°32' E 009°55'0 0.0
2015-May-25 13:30N 53°32' E 009°55'0 0.0
2015-May-25 12:30N 53°32' E 009°55'0 0.0
2015-May-25 11:30N 53°32' E 009°55'0 0.0
2015-May-25 10:33N 53°32' E 009°55'0 0.0
2015-May-25 09:30N 53°32' E 009°55'0 0.0
2015-May-25 08:20N 53°32' E 009°55'0 0.0
2015-May-25 07:29N 53°32' E 009°55'0 0.0
2015-May-25 06:27N 53°32' E 009°55'0 0.0
2015-May-25 05:21N 53°32' E 009°55'0 0.0
2015-May-25 04:32N 53°32' E 009°55'0 0.0
2015-May-25 03:33N 53°32' E 009°55'0 0.0
2015-May-25 02:22N 53°32' E 009°55'0 0.0
2015-May-25 01:33N 53°32' E 009°55'0 0.0
2015-May-25 00:33N 53°32' E 009°55'0 0.0
2015-May-24 23:33N 53°32' E 009°55'0 0.0
2015-May-24 22:33N 53°32' E 009°55'0 0.0
2015-May-24 21:33N 53°32' E 009°55'0 0.0
2015-May-24 20:30N 53°32' E 009°55'0 0.0
2015-May-24 19:33N 53°32' E 009°55'0 0.0
2015-May-24 18:30N 53°32' E 009°55'0 0.0
2015-May-24 17:30N 53°32' E 009°55'0 0.0
2015-May-24 16:33N 53°32' E 009°55'0 0.0
2015-May-24 15:33N 53°32' E 009°55'0 0.0
2015-May-24 14:33N 53°32' E 009°55'0 0.0
2015-May-24 13:33N 53°32' E 009°55'0 0.0
2015-May-24 12:33N 53°32' E 009°55'0 0.0
2015-May-24 11:33N 53°32' E 009°55'0 0.0
2015-May-24 10:27N 53°32' E 009°55'0 0.0
2015-May-24 09:31N 53°32' E 009°55'0 0.0
2015-May-24 08:33N 53°32' E 009°55'0 0.0
2015-May-24 07:33N 53°32' E 009°55'0 0.0
2015-May-24 06:27N 53°32' E 009°55'0 0.0
2015-May-24 05:33N 53°32' E 009°55'0 0.0
2015-May-24 04:33N 53°32' E 009°55'0 0.0
2015-May-24 03:33N 53°32' E 009°55'0 0.0
2015-May-24 02:22N 53°32' E 009°55'0 0.0
2015-May-24 01:30N 53°32' E 009°55'0 0.0
2015-May-24 00:33N 53°32' E 009°55'0 0.0
2015-May-23 23:33N 53°32' E 009°55'0 0.0
2015-May-23 22:33N 53°32' E 009°55'0 0.0
2015-May-23 21:33N 53°32' E 009°55'0 0.0
2015-May-23 20:27N 53°32' E 009°55'0 0.0
2015-May-23 19:33N 53°32' E 009°55'1 0.9
2015-May-23 18:33N 53°32' E 009°54'8 7.5
2015-May-23 17:34N 53°34' E 009°42'9 9.2
2015-May-23 16:33N 53°40' E 009°30'1313.5
2015-May-23 15:33N 53°52' E 009°18'1211.7
2015-May-23 14:33N 53°51' E 008°58'1010.3
2015-May-23 13:33N 53°54' E 008°42'1514.5
2015-May-23 12:33N 53°60' E 008°19'9 9.4
2015-May-23 11:33N 53°58' E 008°03'6 5.6
2015-May-23 10:33N 53°57' E 007°54'8 7.7
2015-May-23 09:33N 53°56' E 007°41'1312.7
2015-May-23 08:33N 53°53' E 007°20'1312.9
2015-May-23 07:33N 53°50' E 006°59'1412.0
2015-May-23 06:22N 53°47' E 006°35'8 9.7
2015-May-23 05:33N 53°46' E 006°22'9 9.5
2015-May-23 04:33N 53°43' E 006°07'9 9.5
2015-May-23 03:34N 53°39' E 005°52'10 9.8
2015-May-23 02:34N 53°36' E 005°36'1010.5
2015-May-23 01:34N 53°33' E 005°19'1111.0
2015-May-23 00:33N 53°29' E 005°02'1211.6
2015-May-22 23:34N 53°24' E 004°44'1211.7
2015-May-22 22:34N 53°14' E 004°35'1212.1
2015-May-22 21:34N 53°04' E 004°23'1312.8
2015-May-22 20:34N 52°52' E 004°15'1312.7
2015-May-22 19:33N 52°42' E 004°02'1312.7
2015-May-22 18:34N 52°33' E 003°47'1514.7
2015-May-22 17:33N 52°23' E 003°30'1716.8
2015-May-22 16:33N 52°11' E 003°11'1716.7
2015-May-22 15:33N 51°58' E 002°53'1616.2
2015-May-22 14:33N 51°46' E 002°35'1615.6
2015-May-22 13:34N 51°34' E 002°19'1414.4
2015-May-22 12:33N 51°23' E 002°04'1313.4
2015-May-22 11:33N 51°13' E 001°50'1211.6
2015-May-22 10:34N 51°04' E 001°38'1111.2
2015-May-22 09:33N 50°55' E 001°27'1211.1
2015-May-22 08:30N 50°44' E 001°22'9 9.7
2015-May-22 07:33N 50°37' E 001°13'1110.5
2015-May-22 06:32N 50°30' E 001°00'1010.6
2015-May-22 05:33N 50°27' E 000°44'1110.4
2015-May-22 04:31N 50°24' E 000°28'23 9.8
2015-May-22 02:12N 50°21' W 000°07'710.6
2015-May-22 01:31N 50°24' W 000°18'1111.4
2015-May-22 00:33N 50°28' W 000°34'1211.8
2015-May-21 23:33N 50°31' W 000°51'8 8.4
2015-May-21 22:33N 50°39' W 000°57'10 9.8
2015-May-21 21:34N 50°46' W 001°09'1010.4
2015-May-21 20:33N 50°52' W 001°22'4 4.3
2015-May-21 19:32N 50°54' W 001°27'0 0.0
2015-May-21 18:32N 50°54' W 001°27'0 0.0
2015-May-21 17:32N 50°54' W 001°27'0 0.0
2015-May-21 16:32N 50°54' W 001°27'0 0.0
2015-May-21 15:32N 50°54' W 001°27'0 0.0
2015-May-21 14:32N 50°54' W 001°27'0 0.0
2015-May-21 13:32N 50°54' W 001°27'0 0.0
2015-May-21 12:32N 50°54' W 001°27'0 0.0
2015-May-21 11:32N 50°54' W 001°27'0 0.0
2015-May-21 10:32N 50°54' W 001°27'0 0.0
2015-May-21 09:32N 50°54' W 001°27'0 0.0
2015-May-21 08:32N 50°54' W 001°27'0 0.0
2015-May-21 07:32N 50°54' W 001°27'0 0.0
2015-May-21 06:32N 50°54' W 001°27'0 0.0
2015-May-21 05:32N 50°54' W 001°27'0 0.0
2015-May-21 04:32N 50°54' W 001°27'0 0.0
2015-May-21 03:32N 50°54' W 001°27'0 0.0
2015-May-21 02:32N 50°54' W 001°27'0 0.0
2015-May-21 01:32N 50°54' W 001°27'0 0.0
2015-May-21 00:32N 50°54' W 001°27'0 0.0
2015-May-20 23:32N 50°54' W 001°27'  

Dump ship's entire track history